Curdworth, United Kingdom
Current Conditions -  °F | °C
As of 7:50 PM on Wednesday 28 Jan 2015 (Local Time) from EGBB Reporting Station
Few Clouds Few Clouds  
Wind Chill: 30°   Ceiling: Unl
Heat Index: 37°   Visibility: 6mi
Dew Point: 28°   Wind: 10mph
Humidity: 70%   Direction: 250°WSW
Pressure: 29.5"   Gusts: NA
Location:  52.53°N, 1.74°W
Report Text: EGBB 281950Z 25009KT 9999 FEW039 03/M02 Q0999
Loading
Personal Weather Stations






























Interactive Weather Map New forecast layout! Learn more

10-Day Weather Forecast

Advertisements
Track Severe Weather on mobile